createdAt,value
2023-02-22T00:00:43.649Z,65387.91
2023-02-22T00:04:11.724Z,65387.91
2023-02-22T00:07:38.169Z,65387.91
2023-02-22T00:10:51.284Z,65387.91
2023-02-22T00:13:50.645Z,65387.91
2023-02-22T00:16:21.148Z,69135.00
2023-02-22T00:19:20.122Z,65387.91
2023-02-22T00:22:31.793Z,65387.91
2023-02-22T00:25:58.392Z,65387.91
2023-02-22T00:28:44.358Z,65387.91
2023-02-22T00:32:01.764Z,65387.91
2023-02-22T00:35:12.786Z,65387.91
2023-02-22T00:38:38.886Z,65387.91
2023-02-22T00:41:41.855Z,65387.91
2023-02-22T00:44:36.553Z,69135.00
2023-02-22T00:47:55.839Z,65387.91
2023-02-22T00:51:05.534Z,65387.91
2023-02-22T00:54:31.477Z,65387.91
2023-02-22T00:57:21.204Z,65387.91
2023-02-22T01:00:28.192Z,65387.91
2023-02-22T01:03:41.278Z,65387.91
2023-02-22T01:07:07.945Z,65387.91
2023-02-22T01:09:56.834Z,65387.91
2023-02-22T01:13:23.011Z,65387.91
2023-02-22T01:16:40.547Z,65387.91
2023-02-22T01:19:13.797Z,65387.91
2023-02-22T01:22:38.275Z,65387.91
2023-02-22T01:25:37.166Z,65387.91
2023-02-22T01:29:03.324Z,65387.91
2023-02-22T01:32:02.024Z,65387.91
2023-02-22T01:34:31.244Z,65387.91
2023-02-22T01:37:50.985Z,65387.91
2023-02-22T01:40:21.651Z,65387.91
2023-02-22T01:43:18.149Z,65387.91
2023-02-22T01:46:22.588Z,65387.91
2023-02-22T01:49:32.128Z,65387.91
2023-02-22T01:52:44.773Z,65387.91
2023-02-22T01:55:54.925Z,65387.91
2023-02-22T01:58:58.914Z,65387.91
2023-02-22T02:01:35.934Z,65387.91
2023-02-22T02:04:15.020Z,65387.91
2023-02-22T02:06:43.613Z,69137.09
2023-02-22T02:09:17.518Z,69138.88
2023-02-22T02:11:46.490Z,69139.56
2023-02-22T02:14:15.601Z,69139.84
2023-02-22T02:16:46.882Z,69139.47
2023-02-22T02:19:25.022Z,69138.66
2023-02-22T02:22:27.542Z,69138.38
2023-02-22T02:25:17.366Z,69137.78
2023-02-22T02:28:25.723Z,69135.59
2023-02-22T02:31:22.583Z,69133.50
2023-02-22T02:34:02.022Z,69132.53
2023-02-22T02:36:35.266Z,69132.78
2023-02-22T02:39:10.191Z,69129.72
2023-02-22T02:41:42.415Z,69128.22
2023-02-22T02:44:15.716Z,69125.63
2023-02-22T02:46:51.322Z,69123.59
2023-02-22T02:49:24.946Z,69121.28
2023-02-22T02:51:55.737Z,69117.94
2023-02-22T02:54:24.295Z,69115.13
2023-02-22T02:56:52.071Z,69113.09
2023-02-22T02:59:26.161Z,69109.69
2023-02-22T03:02:12.734Z,69107.66
2023-02-22T03:04:55.841Z,69105.88
2023-02-22T03:07:38.348Z,69103.94
2023-02-22T03:10:26.013Z,69102.28
2023-02-22T03:13:07.089Z,69100.72
2023-02-22T03:15:45.169Z,69100.03
2023-02-22T03:18:23.057Z,69100.31
2023-02-22T03:21:00.886Z,69100.84
2023-02-22T03:23:33.870Z,69102.00
2023-02-22T03:26:04.396Z,69102.50
2023-02-22T03:28:33.532Z,69104.34
2023-02-22T03:31:03.544Z,69106.38
2023-02-22T03:33:36.201Z,69109.69
2023-02-22T03:36:10.540Z,69113.59
2023-02-22T03:38:40.722Z,69117.50
2023-02-22T03:41:10.843Z,69120.00
2023-02-22T03:43:46.496Z,69120.38
2023-02-22T03:46:15.379Z,69121.47
2023-02-22T03:48:48.776Z,69123.13
2023-02-22T03:51:18.923Z,69124.41
2023-02-22T03:53:47.892Z,69125.63
2023-02-22T03:56:19.996Z,69128.19
2023-02-22T03:58:48.944Z,69130.94
2023-02-22T04:01:17.285Z,69134.09
2023-02-22T04:03:44.883Z,69138.41
2023-02-22T04:06:12.757Z,69141.84
2023-02-22T04:08:43.933Z,69145.16
2023-02-22T04:11:12.544Z,69148.13
2023-02-22T04:13:40.147Z,69152.47
2023-02-22T04:16:08.291Z,69156.22
2023-02-22T04:18:35.816Z,69159.69
2023-02-22T04:21:03.504Z,69163.00
2023-02-22T04:23:30.897Z,69165.78
2023-02-22T04:25:59.627Z,69168.94
2023-02-22T04:28:27.105Z,69172.66
2023-02-22T04:30:54.570Z,69176.25
2023-02-22T04:33:22.126Z,69180.28
2023-02-22T04:35:49.634Z,69184.69
2023-02-22T04:38:17.018Z,69189.28
2023-02-22T04:40:44.411Z,69193.56
2023-02-22T04:43:13.109Z,69197.66
2023-02-22T04:45:40.451Z,69201.97
2023-02-22T04:48:07.821Z,69205.56
2023-02-22T04:50:35.201Z,69209.38
2023-02-22T04:53:02.879Z,69212.53
2023-02-22T04:55:30.284Z,69214.88
2023-02-22T04:57:58.186Z,69217.75
2023-02-22T05:00:27.552Z,69220.13
2023-02-22T05:02:54.951Z,69222.06
2023-02-22T05:05:22.978Z,69224.59
2023-02-22T05:07:50.929Z,69226.16
2023-02-22T05:10:18.676Z,69227.53
2023-02-22T05:12:46.089Z,69228.75
2023-02-22T05:15:17.845Z,69230.13
2023-02-22T05:17:46.970Z,69231.41
2023-02-22T05:20:22.202Z,69232.78
2023-02-22T05:22:49.697Z,69234.44
2023-02-22T05:25:17.409Z,69236.38
2023-02-22T05:27:44.770Z,69237.13
2023-02-22T05:30:13.212Z,69237.94
2023-02-22T05:32:41.864Z,69238.44
2023-02-22T05:35:10.761Z,69239.81
2023-02-22T05:37:38.739Z,69241.25
2023-02-22T05:40:07.569Z,69241.66
2023-02-22T05:42:35.045Z,69242.47
2023-02-22T05:45:03.608Z,69243.31
2023-02-22T05:47:30.946Z,69243.75
2023-02-22T05:49:58.414Z,69244.50
2023-02-22T05:52:27.106Z,69245.47
2023-02-22T05:54:54.511Z,69245.97
2023-02-22T05:57:21.926Z,69245.81
2023-02-22T05:59:49.325Z,69244.91
2023-02-22T06:02:16.772Z,69245.03
2023-02-22T06:04:45.271Z,69245.53
2023-02-22T06:07:12.991Z,69246.97
2023-02-22T06:09:41.995Z,69247.06
2023-02-22T06:12:10.138Z,69247.91
2023-02-22T06:14:38.036Z,69249.47
2023-02-22T06:17:06.645Z,69250.56
2023-02-22T06:19:34.022Z,69251.78
2023-02-22T06:22:02.889Z,69253.50
2023-02-22T06:24:30.241Z,69255.19
2023-02-22T06:27:02.472Z,69257.34
2023-02-22T06:29:30.338Z,69259.38
2023-02-22T06:31:57.809Z,69260.44
2023-02-22T06:34:25.238Z,69262.59
2023-02-22T06:36:52.655Z,69264.31
2023-02-22T06:39:20.053Z,69265.97
2023-02-22T06:41:48.360Z,69267.06
2023-02-22T06:44:17.150Z,69267.91
2023-02-22T06:46:49.038Z,69268.63
2023-02-22T06:49:16.448Z,69269.78
2023-02-22T06:51:44.214Z,69270.06
2023-02-22T06:54:12.868Z,69271.13
2023-02-22T06:56:40.218Z,69271.66
2023-02-22T06:59:08.363Z,69272.72
2023-02-22T07:01:37.409Z,69274.66
2023-02-22T07:04:04.866Z,69276.72
2023-02-22T07:06:32.242Z,69279.19
2023-02-22T07:08:59.710Z,69281.97
2023-02-22T07:11:27.089Z,69285.06
2023-02-22T07:13:55.359Z,69288.56
2023-02-22T07:16:22.930Z,69292.03
2023-02-22T07:18:51.642Z,69295.19
2023-02-22T07:21:19.639Z,69298.84
2023-02-22T07:23:55.601Z,69301.06
2023-02-22T07:26:23.462Z,69303.56
2023-02-22T07:28:50.854Z,69306.38
2023-02-22T07:31:18.804Z,69309.03
2023-02-22T07:33:47.663Z,69311.38
2023-02-22T07:36:18.016Z,69313.69
2023-02-22T07:38:46.896Z,69313.69
2023-02-22T07:41:14.633Z,69317.84
2023-02-22T07:43:42.247Z,69321.50
2023-02-22T07:46:09.744Z,69325.09
2023-02-22T07:48:37.093Z,69329.16
2023-02-22T07:51:05.860Z,69334.19
2023-02-22T07:53:34.568Z,69340.00
2023-02-22T07:56:06.056Z,69344.75
2023-02-22T07:58:33.868Z,69350.47
2023-02-22T08:01:04.335Z,69356.72
2023-02-22T08:03:36.411Z,69362.81
2023-02-22T08:06:05.730Z,69367.91
2023-02-22T08:08:34.668Z,69374.69
2023-02-22T08:11:02.419Z,69380.59
2023-02-22T08:13:30.024Z,69387.03
2023-02-22T08:15:57.554Z,69392.75
2023-02-22T08:18:26.055Z,69399.38
2023-02-22T08:20:55.206Z,69405.94
2023-02-22T08:23:25.699Z,69413.13
2023-02-22T08:25:57.637Z,69420.56
2023-02-22T08:28:25.907Z,69426.72
2023-02-22T08:30:53.880Z,69431.41
2023-02-22T08:33:23.149Z,69433.22
2023-02-22T08:35:51.563Z,69435.72
2023-02-22T08:38:22.049Z,69438.09
2023-02-22T08:40:50.316Z,69441.97
2023-02-22T08:43:20.227Z,69446.16
2023-02-22T08:45:48.440Z,69450.19
2023-02-22T08:48:17.677Z,69455.72
2023-02-22T08:50:45.642Z,69460.34
2023-02-22T08:53:14.848Z,69466.22
2023-02-22T08:55:43.046Z,69469.66
2023-02-22T08:58:12.019Z,69474.25
2023-02-22T09:00:41.506Z,69481.41
2023-02-22T09:03:12.968Z,69489.44
2023-02-22T09:05:43.325Z,69498.22
2023-02-22T09:08:11.211Z,69507.38
2023-02-22T09:10:38.782Z,69518.69
2023-02-22T09:13:06.479Z,69529.06
2023-02-22T09:15:36.698Z,69538.22
2023-02-22T09:18:08.308Z,69546.09
2023-02-22T09:20:36.766Z,69551.94
2023-02-22T09:23:05.181Z,69558.88
2023-02-22T09:25:34.116Z,69564.50
2023-02-22T09:28:01.573Z,69571.44
2023-02-22T09:30:34.351Z,69580.41
2023-02-22T09:33:04.432Z,69589.53
2023-02-22T09:35:35.983Z,69598.69
2023-02-22T09:38:06.058Z,69605.84
2023-02-22T09:40:40.902Z,69611.13
2023-02-22T09:43:25.276Z,69615.84
2023-02-22T09:46:07.408Z,69620.16
2023-02-22T09:48:39.975Z,69623.91
2023-02-22T09:51:15.716Z,69629.75
2023-02-22T09:53:46.577Z,69632.81
2023-02-22T09:56:18.135Z,69639.06
2023-02-22T09:58:48.381Z,69647.78
2023-02-22T10:01:24.257Z,69656.50
2023-02-22T10:03:57.291Z,69665.66
2023-02-22T10:06:26.007Z,69677.03
2023-02-22T10:08:56.689Z,69684.66
2023-02-22T10:11:36.919Z,69694.88
2023-02-22T10:14:26.075Z,69707.63
2023-02-22T10:17:01.472Z,69725.63
2023-02-22T10:19:38.478Z,69743.13
2023-02-22T10:22:21.971Z,69761.22
2023-02-22T10:24:58.054Z,69778.47
2023-02-22T10:27:32.614Z,69794.59
2023-02-22T10:30:23.543Z,69808.81
2023-02-22T10:32:58.525Z,69823.06
2023-02-22T10:35:28.919Z,69841.41
2023-02-22T10:38:02.810Z,69856.69
2023-02-22T10:40:35.380Z,69874.88
2023-02-22T10:43:05.351Z,69894.78
2023-02-22T10:45:34.696Z,69908.25
2023-02-22T10:48:08.498Z,69916.75
2023-02-22T10:50:39.708Z,69923.00
2023-02-22T10:53:09.365Z,69928.13
2023-02-22T10:55:37.591Z,69933.28
2023-02-22T10:58:07.963Z,69944.44
2023-02-22T11:00:37.296Z,69960.28
2023-02-22T11:03:17.445Z,69975.91
2023-02-22T11:05:45.125Z,69992.59
2023-02-22T11:08:28.836Z,70002.09
2023-02-22T11:10:58.651Z,70015.03
2023-02-22T11:13:28.902Z,70027.34
2023-02-22T11:16:00.103Z,70034.19
2023-02-22T11:18:30.954Z,70041.13
2023-02-22T11:21:04.902Z,70050.03
2023-02-22T11:23:34.734Z,70056.16
2023-02-22T11:26:07.497Z,70067.69
2023-02-22T11:28:35.803Z,70080.59
2023-02-22T11:31:14.060Z,70089.44
2023-02-22T11:33:52.376Z,70096.75
2023-02-22T11:36:37.449Z,70103.97
2023-02-22T11:39:11.639Z,70109.00
2023-02-22T11:41:39.167Z,70113.00
2023-02-22T11:44:15.771Z,70120.13
2023-02-22T11:46:44.614Z,70123.75
2023-02-22T11:49:17.173Z,70131.31
2023-02-22T11:52:12.849Z,70140.31
2023-02-22T11:54:57.412Z,70147.91
2023-02-22T11:57:41.128Z,70158.81
2023-02-22T12:00:24.505Z,70168.28
2023-02-22T12:03:14.369Z,70174.16
2023-02-22T12:06:00.373Z,70179.28
2023-02-22T12:08:40.990Z,70186.41
2023-02-22T12:11:18.078Z,70192.19
2023-02-22T12:14:00.572Z,70202.97
2023-02-22T12:16:39.253Z,70218.53
2023-02-22T12:19:15.924Z,70237.09
2023-02-22T12:21:47.962Z,70256.22
2023-02-22T12:24:19.778Z,70277.38
2023-02-22T12:26:54.376Z,70295.66
2023-02-22T12:29:28.994Z,70306.75
2023-02-22T12:32:01.964Z,70315.91
2023-02-22T12:34:37.452Z,70316.59
2023-02-22T12:37:12.467Z,70316.25
2023-02-22T12:39:53.501Z,70316.91
2023-02-22T12:42:29.180Z,70318.09
2023-02-22T12:45:01.158Z,70320.38
2023-02-22T12:47:35.534Z,70324.28
2023-02-22T12:50:12.578Z,70331.66
2023-02-22T12:52:46.986Z,70342.63
2023-02-22T12:55:18.952Z,70351.56
2023-02-22T12:57:57.458Z,70364.63
2023-02-22T13:00:28.931Z,70378.19
2023-02-22T13:03:01.432Z,70389.00
2023-02-22T13:05:34.284Z,70396.22
2023-02-22T13:08:13.373Z,70408.34
2023-02-22T13:10:57.262Z,70423.69
2023-02-22T13:13:33.108Z,70434.81
2023-02-22T13:16:08.840Z,70447.88
2023-02-22T13:18:43.024Z,70456.53
2023-02-22T13:21:19.964Z,70467.97
2023-02-22T13:23:54.819Z,70482.94
2023-02-22T13:26:27.073Z,70495.91
2023-02-22T13:29:03.888Z,70503.72
2023-02-22T13:31:51.674Z,70510.81
2023-02-22T13:34:34.239Z,70518.22
2023-02-22T13:37:17.635Z,70530.78
2023-02-22T13:40:02.970Z,70544.53
2023-02-22T13:42:53.144Z,70559.53
2023-02-22T13:45:55.506Z,70574.59
2023-02-22T13:48:47.899Z,70589.38
2023-02-22T13:51:32.160Z,70597.97
2023-02-22T13:54:06.980Z,70601.53
2023-02-22T13:56:34.558Z,70606.22
2023-02-22T13:59:04.710Z,70604.88
2023-02-22T14:01:43.389Z,70601.25
2023-02-22T14:04:32.889Z,70599.00
2023-02-22T14:07:01.695Z,70592.06
2023-02-22T14:09:48.973Z,70589.63
2023-02-22T14:12:50.549Z,70586.75
2023-02-22T14:15:29.567Z,70580.34
2023-02-22T14:18:01.883Z,70575.78
2023-02-22T14:20:35.220Z,70575.88
2023-02-22T14:23:29.861Z,70585.09
2023-02-22T14:25:58.355Z,70590.56
2023-02-22T14:28:48.678Z,70590.06
2023-02-22T14:31:34.396Z,70592.72
2023-02-22T14:34:11.539Z,70593.59
2023-02-22T14:36:46.575Z,70593.97
2023-02-22T14:39:20.233Z,70594.78
2023-02-22T14:41:54.554Z,70594.69
2023-02-22T14:44:26.748Z,70594.53
2023-02-22T14:47:04.384Z,70595.09
2023-02-22T14:49:39.117Z,70593.53
2023-02-22T14:52:15.831Z,70592.59
2023-02-22T14:54:53.550Z,70587.50
2023-02-22T14:57:24.755Z,70579.59
2023-02-22T15:00:11.662Z,70575.56
2023-02-22T15:02:41.344Z,70571.31
2023-02-22T15:05:14.535Z,70563.63
2023-02-22T15:07:51.802Z,70553.63
2023-02-22T15:10:26.710Z,70541.00
2023-02-22T15:13:08.897Z,70526.00
2023-02-22T15:15:40.591Z,70505.91
2023-02-22T15:18:18.771Z,70479.47
2023-02-22T15:20:48.420Z,70454.66
2023-02-22T15:23:16.594Z,70431.75
2023-02-22T15:25:49.145Z,70407.44
2023-02-22T15:28:18.533Z,70381.19
2023-02-22T15:30:46.528Z,70354.44
2023-02-22T15:33:19.671Z,70327.34
2023-02-22T15:35:54.593Z,70300.25
2023-02-22T15:38:28.350Z,70273.56
2023-02-22T15:41:04.642Z,70246.84
2023-02-22T15:43:32.962Z,70222.91
2023-02-22T15:46:01.038Z,70201.22
2023-02-22T15:48:31.489Z,70181.53
2023-02-22T15:51:06.489Z,70163.91
2023-02-22T15:53:40.825Z,70148.06
2023-02-22T15:56:14.119Z,70137.06
2023-02-22T15:58:42.625Z,70124.88
2023-02-22T16:01:14.063Z,70112.09
2023-02-22T16:03:46.309Z,70098.97
2023-02-22T16:06:22.784Z,70082.25
2023-02-22T16:08:55.588Z,70063.59
2023-02-22T16:11:29.695Z,70042.25
2023-02-22T16:14:01.181Z,70020.78
2023-02-22T16:16:32.165Z,69999.34
2023-02-22T16:19:27.657Z,69976.38
2023-02-22T16:22:02.722Z,69951.66
2023-02-22T16:24:32.112Z,69926.25
2023-02-22T16:27:05.444Z,69900.19
2023-02-22T16:29:32.984Z,69874.03
2023-02-22T16:32:01.676Z,69846.97
2023-02-22T16:34:29.108Z,69819.78
2023-02-22T16:36:58.553Z,69794.03
2023-02-22T16:39:28.203Z,69768.97
2023-02-22T16:41:58.425Z,69744.16
2023-02-22T16:44:26.839Z,69719.56
2023-02-22T16:46:55.465Z,69694.38
2023-02-22T16:49:23.684Z,69670.16
2023-02-22T16:51:55.153Z,69646.34
2023-02-22T16:54:28.974Z,69623.53
2023-02-22T16:57:00.196Z,69623.53
2023-02-22T16:59:27.658Z,69601.16
2023-02-22T17:01:58.586Z,69580.09
2023-02-22T17:04:28.662Z,69560.13
2023-02-22T17:06:58.904Z,69541.19
2023-02-22T17:09:27.640Z,69541.19
2023-02-22T17:11:57.028Z,69541.19
2023-02-22T17:14:34.696Z,69541.19
2023-02-22T17:17:02.129Z,69541.19
2023-02-22T17:19:29.548Z,69518.38
2023-02-22T17:21:56.931Z,69518.38
2023-02-22T17:24:28.961Z,69518.38
2023-02-22T17:26:59.645Z,69518.38
2023-02-22T17:29:28.323Z,69518.38
2023-02-22T17:31:55.923Z,69518.38
2023-02-22T17:34:23.399Z,69518.38
2023-02-22T17:36:50.859Z,69518.38
2023-02-22T17:39:18.341Z,69518.38
2023-02-22T17:41:45.802Z,69518.38
2023-02-22T17:44:14.514Z,69518.38
2023-02-22T17:46:43.956Z,69518.38
2023-02-22T17:49:13.582Z,69518.38
2023-02-22T17:51:41.729Z,69518.38
2023-02-22T17:54:10.427Z,69518.38
2023-02-22T17:56:37.910Z,69518.38
2023-02-22T17:59:07.939Z,69518.38
2023-02-22T18:01:36.842Z,65387.91
2023-02-22T18:04:05.108Z,65387.91
2023-02-22T18:06:33.232Z,65387.91
2023-02-22T18:09:01.625Z,65387.91
2023-02-22T18:11:32.489Z,65387.91
2023-02-22T18:14:00.152Z,65387.91
2023-02-22T18:16:27.884Z,65387.91
2023-02-22T18:18:57.135Z,65387.91
2023-02-22T18:21:26.669Z,65387.91
2023-02-22T18:23:54.707Z,65387.91
2023-02-22T18:26:24.036Z,65387.91
2023-02-22T18:28:53.467Z,65387.91
2023-02-22T18:31:22.126Z,65387.91
2023-02-22T18:33:51.588Z,65387.91
2023-02-22T18:36:22.586Z,65387.91
2023-02-22T18:38:51.136Z,65387.91
2023-02-22T18:41:20.028Z,65387.91
2023-02-22T18:43:47.461Z,65387.91
2023-02-22T18:46:17.955Z,65387.91
2023-02-22T18:48:46.764Z,65387.91
2023-02-22T18:51:17.124Z,65387.91
2023-02-22T18:53:47.660Z,65387.91
2023-02-22T18:56:21.330Z,65387.91
2023-02-22T18:58:53.208Z,65387.91
2023-02-22T19:01:21.903Z,65387.91
2023-02-22T19:03:49.533Z,65387.91
2023-02-22T19:06:18.073Z,65387.91
2023-02-22T19:08:48.547Z,65387.91
2023-02-22T19:11:19.159Z,65387.91
2023-02-22T19:13:47.206Z,65387.91
2023-02-22T19:16:16.725Z,65387.91
2023-02-22T19:18:44.483Z,65387.91
2023-02-22T19:21:13.816Z,65387.91
2023-02-22T19:23:45.494Z,65387.91
2023-02-22T19:26:18.475Z,65387.91
2023-02-22T19:28:46.289Z,65387.91
2023-02-22T19:31:15.703Z,65387.91
2023-02-22T19:33:44.285Z,65387.91
2023-02-22T19:36:12.984Z,65387.91
2023-02-22T19:38:40.428Z,65387.91
2023-02-22T19:41:10.271Z,65387.91
2023-02-22T19:43:39.512Z,65387.91
2023-02-22T19:46:08.310Z,65387.91
2023-02-22T19:48:36.169Z,65387.91
2023-02-22T19:51:06.127Z,65387.91
2023-02-22T19:53:33.716Z,65387.91
2023-02-22T19:56:01.414Z,65387.91
2023-02-22T19:58:28.806Z,65387.91
2023-02-22T20:00:57.499Z,65387.91
2023-02-22T20:03:26.426Z,65387.91
2023-02-22T20:05:57.921Z,65387.91
2023-02-22T20:08:26.146Z,65387.91
2023-02-22T20:10:58.478Z,65387.91
2023-02-22T20:13:25.864Z,65387.91
2023-02-22T20:15:54.245Z,65387.91
2023-02-22T20:18:23.038Z,65387.91
2023-02-22T20:20:51.258Z,65387.91
2023-02-22T20:23:18.789Z,65387.91
2023-02-22T20:25:53.493Z,65387.91
2023-02-22T20:28:20.976Z,65387.91
2023-02-22T20:30:51.324Z,65387.91
2023-02-22T20:33:18.985Z,65387.91
2023-02-22T20:35:47.918Z,65387.91
2023-02-22T20:38:15.567Z,65387.91
2023-02-22T20:40:43.244Z,65387.91
2023-02-22T20:43:10.810Z,65387.91
2023-02-22T20:45:38.984Z,65387.91
2023-02-22T20:48:06.906Z,65387.91
2023-02-22T20:50:36.246Z,65387.91
2023-02-22T20:53:04.995Z,65387.91
2023-02-22T20:55:32.371Z,65387.91
2023-02-22T20:57:59.739Z,65387.91
2023-02-22T21:00:27.112Z,65387.91
2023-02-22T21:02:54.545Z,65387.91
2023-02-22T21:05:23.984Z,65387.91
2023-02-22T21:07:51.591Z,65387.91
2023-02-22T21:10:21.826Z,65387.91
2023-02-22T21:12:50.571Z,65387.91
2023-02-22T21:15:18.950Z,65387.91
2023-02-22T21:17:47.447Z,65387.91
2023-02-22T21:20:16.144Z,65387.91
2023-02-22T21:22:46.244Z,65387.91
2023-02-22T21:25:16.494Z,65387.91
2023-02-22T21:27:45.567Z,65387.91
2023-02-22T21:30:13.427Z,65387.91
2023-02-22T21:32:40.822Z,65387.91
2023-02-22T21:35:09.314Z,65387.91
2023-02-22T21:37:36.682Z,65387.91
2023-02-22T21:40:09.594Z,65387.91
2023-02-22T21:42:36.981Z,65387.91
2023-02-22T21:45:08.243Z,65387.91
2023-02-22T21:47:35.948Z,65387.91
2023-02-22T21:50:03.556Z,65387.91
2023-02-22T21:52:30.944Z,65387.91
2023-02-22T21:54:58.563Z,65387.91
2023-02-22T21:57:26.085Z,65387.91
2023-02-22T21:59:53.447Z,65387.91
2023-02-22T22:02:22.335Z,65387.91
2023-02-22T22:04:50.498Z,65387.91
2023-02-22T22:07:18.761Z,65387.91
2023-02-22T22:09:46.189Z,65387.91
2023-02-22T22:12:14.029Z,65387.91
2023-02-22T22:14:41.418Z,65387.91
2023-02-22T22:17:09.506Z,65387.91
2023-02-22T22:19:40.255Z,65387.91
2023-02-22T22:22:08.108Z,65387.91
2023-02-22T22:24:35.511Z,65387.91
2023-02-22T22:27:05.185Z,65387.91
2023-02-22T22:29:34.198Z,65387.91
2023-02-22T22:32:01.996Z,65387.91
2023-02-22T22:34:29.979Z,65387.91
2023-02-22T22:36:59.597Z,65387.91
2023-02-22T22:39:27.637Z,65387.91
2023-02-22T22:41:55.405Z,65387.91
2023-02-22T22:44:23.046Z,65387.91
2023-02-22T22:46:53.472Z,65387.91
2023-02-22T22:49:23.388Z,65387.91
2023-02-22T22:51:51.045Z,65387.91
2023-02-22T22:54:19.743Z,65387.91
2023-02-22T22:56:47.158Z,65387.91
2023-02-22T22:59:15.181Z,65387.91
2023-02-22T23:01:45.153Z,65387.91
2023-02-22T23:04:16.084Z,65387.91
2023-02-22T23:06:46.307Z,65387.91
2023-02-22T23:09:18.465Z,65387.91
2023-02-22T23:11:51.130Z,65387.91
2023-02-22T23:14:21.131Z,65387.91
2023-02-22T23:16:49.318Z,65387.91
2023-02-22T23:19:19.049Z,65387.91
2023-02-22T23:21:47.206Z,65387.91
2023-02-22T23:24:16.543Z,65387.91
2023-02-22T23:26:48.454Z,65387.91
2023-02-22T23:29:17.925Z,65387.91
2023-02-22T23:31:48.216Z,65387.91
2023-02-22T23:34:17.082Z,65387.91
2023-02-22T23:36:44.949Z,65387.91
2023-02-22T23:39:12.723Z,65387.91
2023-02-22T23:41:40.101Z,65387.91
2023-02-22T23:44:08.495Z,65387.91
2023-02-22T23:46:37.291Z,65387.91
2023-02-22T23:49:05.482Z,65387.91
2023-02-22T23:51:39.124Z,65387.91
2023-02-22T23:54:06.965Z,65387.91
2023-02-22T23:56:35.261Z,65387.91
2023-02-22T23:59:09.486Z,65387.91
